sensor_id;sensor_type;location;lat;lon;timestamp;P1;durP1;ratioP1;P2;durP2;ratioP2
19280;SDS011;9774;52.034;5.342;2023-05-10T00:01:22;13.10;;;10.38;;
19280;SDS011;9774;52.034;5.342;2023-05-10T00:03:50;15.25;;;9.65;;
19280;SDS011;9774;52.034;5.342;2023-05-10T00:06:17;13.48;;;9.73;;
19280;SDS011;9774;52.034;5.342;2023-05-10T00:08:45;13.85;;;9.73;;
19280;SDS011;9774;52.034;5.342;2023-05-10T00:11:12;16.23;;;10.27;;
19280;SDS011;9774;52.034;5.342;2023-05-10T00:13:41;15.27;;;10.95;;
19280;SDS011;9774;52.034;5.342;2023-05-10T00:16:08;13.82;;;10.63;;
19280;SDS011;9774;52.034;5.342;2023-05-10T00:18:37;14.68;;;11.00;;
19280;SDS011;9774;52.034;5.342;2023-05-10T00:21:04;13.80;;;10.25;;
19280;SDS011;9774;52.034;5.342;2023-05-10T00:23:32;15.23;;;10.95;;
19280;SDS011;9774;52.034;5.342;2023-05-10T00:25:59;12.38;;;10.05;;
19280;SDS011;9774;52.034;5.342;2023-05-10T00:28:27;14.30;;;10.25;;
19280;SDS011;9774;52.034;5.342;2023-05-10T00:30:55;13.73;;;10.43;;
19280;SDS011;9774;52.034;5.342;2023-05-10T00:33:23;14.55;;;10.13;;
19280;SDS011;9774;52.034;5.342;2023-05-10T00:35:50;13.43;;;10.18;;
19280;SDS011;9774;52.034;5.342;2023-05-10T00:38:18;16.48;;;10.93;;
19280;SDS011;9774;52.034;5.342;2023-05-10T00:40:45;14.40;;;10.93;;
19280;SDS011;9774;52.034;5.342;2023-05-10T00:43:12;15.55;;;11.05;;
19280;SDS011;9774;52.034;5.342;2023-05-10T00:45:40;13.70;;;10.07;;
19280;SDS011;9774;52.034;5.342;2023-05-10T00:48:09;14.52;;;9.88;;
19280;SDS011;9774;52.034;5.342;2023-05-10T00:50:36;17.17;;;11.57;;
19280;SDS011;9774;52.034;5.342;2023-05-10T00:53:05;14.77;;;10.75;;
19280;SDS011;9774;52.034;5.342;2023-05-10T00:55:32;15.57;;;10.63;;
19280;SDS011;9774;52.034;5.342;2023-05-10T00:57:59;13.63;;;9.82;;
19280;SDS011;9774;52.034;5.342;2023-05-10T01:00:27;14.55;;;10.00;;
19280;SDS011;9774;52.034;5.342;2023-05-10T01:02:54;14.40;;;10.48;;
19280;SDS011;9774;52.034;5.342;2023-05-10T01:05:23;14.27;;;9.65;;
19280;SDS011;9774;52.034;5.342;2023-05-10T01:07:52;24.13;;;9.80;;
19280;SDS011;9774;52.034;5.342;2023-05-10T01:10:19;17.23;;;9.52;;
19280;SDS011;9774;52.034;5.342;2023-05-10T01:12:47;16.52;;;10.77;;
19280;SDS011;9774;52.034;5.342;2023-05-10T01:15:14;15.52;;;9.98;;
19280;SDS011;9774;52.034;5.342;2023-05-10T01:17:43;15.95;;;10.43;;
19280;SDS011;9774;52.034;5.342;2023-05-10T01:20:12;14.32;;;10.43;;
19280;SDS011;9774;52.034;5.342;2023-05-10T01:22:46;15.63;;;11.02;;
19280;SDS011;9774;52.034;5.342;2023-05-10T01:25:46;14.88;;;11.05;;
19280;SDS011;9774;52.034;5.342;2023-05-10T01:28:46;13.85;;;9.65;;
19280;SDS011;9774;52.034;5.342;2023-05-10T01:31:52;14.68;;;10.75;;
19280;SDS011;9774;52.034;5.342;2023-05-10T01:34:45;15.07;;;10.15;;
19280;SDS011;9774;52.034;5.342;2023-05-10T01:37:21;17.95;;;11.57;;
19280;SDS011;9774;52.034;5.342;2023-05-10T01:39:55;18.73;;;12.50;;
19280;SDS011;9774;52.034;5.342;2023-05-10T01:42:28;19.27;;;13.30;;
19280;SDS011;9774;52.034;5.342;2023-05-10T01:45:02;21.08;;;13.35;;
19280;SDS011;9774;52.034;5.342;2023-05-10T01:47:37;20.73;;;12.52;;
19280;SDS011;9774;52.034;5.342;2023-05-10T01:50:09;21.13;;;13.35;;
19280;SDS011;9774;52.034;5.342;2023-05-10T01:52:42;18.25;;;12.38;;
19280;SDS011;9774;52.034;5.342;2023-05-10T01:55:14;18.00;;;12.65;;
19280;SDS011;9774;52.034;5.342;2023-05-10T01:57:44;20.20;;;12.90;;
19280;SDS011;9774;52.034;5.342;2023-05-10T02:00:15;19.85;;;13.50;;
19280;SDS011;9774;52.034;5.342;2023-05-10T02:02:46;19.17;;;13.05;;
19280;SDS011;9774;52.034;5.342;2023-05-10T02:05:15;17.63;;;12.73;;
19280;SDS011;9774;52.034;5.342;2023-05-10T02:07:43;19.17;;;12.40;;
19280;SDS011;9774;52.034;5.342;2023-05-10T02:10:11;21.83;;;13.00;;
19280;SDS011;9774;52.034;5.342;2023-05-10T02:12:41;23.83;;;13.75;;
19280;SDS011;9774;52.034;5.342;2023-05-10T02:15:11;22.05;;;13.00;;
19280;SDS011;9774;52.034;5.342;2023-05-10T02:17:41;21.95;;;13.70;;
19280;SDS011;9774;52.034;5.342;2023-05-10T02:20:10;20.45;;;13.70;;
19280;SDS011;9774;52.034;5.342;2023-05-10T02:22:38;21.50;;;13.25;;
19280;SDS011;9774;52.034;5.342;2023-05-10T02:25:08;19.73;;;13.40;;
19280;SDS011;9774;52.034;5.342;2023-05-10T02:27:36;21.73;;;13.60;;
19280;SDS011;9774;52.034;5.342;2023-05-10T02:30:05;22.23;;;14.45;;
19280;SDS011;9774;52.034;5.342;2023-05-10T02:32:35;23.50;;;14.85;;
19280;SDS011;9774;52.034;5.342;2023-05-10T02:35:03;23.20;;;14.27;;
19280;SDS011;9774;52.034;5.342;2023-05-10T02:37:32;25.52;;;15.15;;
19280;SDS011;9774;52.034;5.342;2023-05-10T02:40:03;26.00;;;15.45;;
19280;SDS011;9774;52.034;5.342;2023-05-10T02:42:32;28.08;;;16.73;;
19280;SDS011;9774;52.034;5.342;2023-05-10T02:45:02;25.35;;;15.70;;
19280;SDS011;9774;52.034;5.342;2023-05-10T02:47:33;25.38;;;15.95;;
19280;SDS011;9774;52.034;5.342;2023-05-10T02:50:01;25.27;;;14.85;;
19280;SDS011;9774;52.034;5.342;2023-05-10T02:52:29;25.27;;;15.88;;
19280;SDS011;9774;52.034;5.342;2023-05-10T02:55:04;27.17;;;15.55;;
19280;SDS011;9774;52.034;5.342;2023-05-10T02:57:34;24.83;;;14.40;;
19280;SDS011;9774;52.034;5.342;2023-05-10T03:00:08;28.23;;;15.38;;
19280;SDS011;9774;52.034;5.342;2023-05-10T03:02:36;24.25;;;15.10;;
19280;SDS011;9774;52.034;5.342;2023-05-10T03:05:03;27.85;;;16.60;;
19280;SDS011;9774;52.034;5.342;2023-05-10T03:07:33;26.58;;;14.80;;
19280;SDS011;9774;52.034;5.342;2023-05-10T03:10:00;25.70;;;15.50;;
19280;SDS011;9774;52.034;5.342;2023-05-10T03:12:31;25.70;;;15.63;;
19280;SDS011;9774;52.034;5.342;2023-05-10T03:15:10;23.80;;;15.45;;
19280;SDS011;9774;52.034;5.342;2023-05-10T03:17:43;23.80;;;14.45;;
19280;SDS011;9774;52.034;5.342;2023-05-10T03:20:22;27.08;;;16.17;;
19280;SDS011;9774;52.034;5.342;2023-05-10T03:22:53;23.90;;;15.07;;
19280;SDS011;9774;52.034;5.342;2023-05-10T03:25:33;24.20;;;14.18;;
19280;SDS011;9774;52.034;5.342;2023-05-10T03:28:01;29.92;;;16.20;;
19280;SDS011;9774;52.034;5.342;2023-05-10T03:30:31;23.63;;;13.98;;
19280;SDS011;9774;52.034;5.342;2023-05-10T03:33:03;28.48;;;14.98;;
19280;SDS011;9774;52.034;5.342;2023-05-10T03:35:31;24.05;;;14.77;;
19280;SDS011;9774;52.034;5.342;2023-05-10T03:37:58;23.85;;;14.43;;
19280;SDS011;9774;52.034;5.342;2023-05-10T03:40:26;22.42;;;14.18;;
19280;SDS011;9774;52.034;5.342;2023-05-10T03:42:56;22.10;;;14.10;;
19280;SDS011;9774;52.034;5.342;2023-05-10T03:45:25;23.58;;;13.98;;
19280;SDS011;9774;52.034;5.342;2023-05-10T03:47:52;21.23;;;13.85;;
19280;SDS011;9774;52.034;5.342;2023-05-10T03:50:20;18.98;;;12.85;;
19280;SDS011;9774;52.034;5.342;2023-05-10T03:52:48;23.10;;;13.35;;
19280;SDS011;9774;52.034;5.342;2023-05-10T03:55:15;24.17;;;13.52;;
19280;SDS011;9774;52.034;5.342;2023-05-10T03:57:42;22.75;;;12.70;;
19280;SDS011;9774;52.034;5.342;2023-05-10T04:00:10;21.63;;;12.85;;
19280;SDS011;9774;52.034;5.342;2023-05-10T04:02:40;23.85;;;13.75;;
19280;SDS011;9774;52.034;5.342;2023-05-10T04:05:07;21.42;;;13.35;;
19280;SDS011;9774;52.034;5.342;2023-05-10T04:07:35;27.52;;;13.75;;
19280;SDS011;9774;52.034;5.342;2023-05-10T04:10:02;23.10;;;13.55;;
19280;SDS011;9774;52.034;5.342;2023-05-10T04:12:31;19.40;;;12.43;;
19280;SDS011;9774;52.034;5.342;2023-05-10T04:14:58;19.27;;;11.07;;
19280;SDS011;9774;52.034;5.342;2023-05-10T04:17:26;22.05;;;13.43;;
19280;SDS011;9774;52.034;5.342;2023-05-10T04:19:55;19.30;;;12.73;;
19280;SDS011;9774;52.034;5.342;2023-05-10T04:22:22;19.27;;;12.63;;
19280;SDS011;9774;52.034;5.342;2023-05-10T04:24:50;19.60;;;12.48;;
19280;SDS011;9774;52.034;5.342;2023-05-10T04:27:17;22.33;;;13.40;;
19280;SDS011;9774;52.034;5.342;2023-05-10T04:29:44;19.88;;;12.63;;
19280;SDS011;9774;52.034;5.342;2023-05-10T04:32:12;26.17;;;14.25;;
19280;SDS011;9774;52.034;5.342;2023-05-10T04:34:41;21.15;;;13.55;;
19280;SDS011;9774;52.034;5.342;2023-05-10T04:37:09;24.45;;;12.45;;
19280;SDS011;9774;52.034;5.342;2023-05-10T04:39:37;24.13;;;14.23;;
19280;SDS011;9774;52.034;5.342;2023-05-10T04:42:04;20.92;;;13.40;;
19280;SDS011;9774;52.034;5.342;2023-05-10T04:44:32;25.52;;;15.45;;
19280;SDS011;9774;52.034;5.342;2023-05-10T04:46:59;25.00;;;14.63;;
19280;SDS011;9774;52.034;5.342;2023-05-10T04:49:27;24.63;;;14.05;;
19280;SDS011;9774;52.034;5.342;2023-05-10T04:51:54;25.40;;;14.77;;
19280;SDS011;9774;52.034;5.342;2023-05-10T04:54:23;29.08;;;15.10;;
19280;SDS011;9774;52.034;5.342;2023-05-10T04:56:50;29.70;;;15.02;;
19280;SDS011;9774;52.034;5.342;2023-05-10T04:59:18;27.15;;;15.68;;
19280;SDS011;9774;52.034;5.342;2023-05-10T05:01:45;27.98;;;14.43;;
19280;SDS011;9774;52.034;5.342;2023-05-10T05:04:12;28.95;;;15.23;;
19280;SDS011;9774;52.034;5.342;2023-05-10T05:06:40;28.42;;;14.90;;
19280;SDS011;9774;52.034;5.342;2023-05-10T05:09:08;26.83;;;16.33;;
19280;SDS011;9774;52.034;5.342;2023-05-10T05:11:37;29.42;;;14.80;;
19280;SDS011;9774;52.034;5.342;2023-05-10T05:14:05;25.38;;;15.00;;
19280;SDS011;9774;52.034;5.342;2023-05-10T05:16:32;26.88;;;14.40;;
19280;SDS011;9774;52.034;5.342;2023-05-10T05:18:59;26.90;;;14.90;;
19280;SDS011;9774;52.034;5.342;2023-05-10T05:21:27;28.73;;;15.85;;
19280;SDS011;9774;52.034;5.342;2023-05-10T05:23:54;27.88;;;15.05;;
19280;SDS011;9774;52.034;5.342;2023-05-10T05:26:21;26.05;;;16.33;;
19280;SDS011;9774;52.034;5.342;2023-05-10T05:28:50;30.23;;;15.23;;
19280;SDS011;9774;52.034;5.342;2023-05-10T05:31:19;27.85;;;15.32;;
19280;SDS011;9774;52.034;5.342;2023-05-10T05:33:47;29.08;;;16.48;;
19280;SDS011;9774;52.034;5.342;2023-05-10T05:36:14;28.05;;;15.68;;
19280;SDS011;9774;52.034;5.342;2023-05-10T05:38:41;26.10;;;16.25;;
19280;SDS011;9774;52.034;5.342;2023-05-10T05:41:09;28.58;;;16.40;;
19280;SDS011;9774;52.034;5.342;2023-05-10T05:43:36;25.40;;;14.60;;
19280;SDS011;9774;52.034;5.342;2023-05-10T05:46:05;27.50;;;15.05;;
19280;SDS011;9774;52.034;5.342;2023-05-10T05:48:32;27.63;;;16.17;;
19280;SDS011;9774;52.034;5.342;2023-05-10T05:51:00;40.08;;;15.60;;
19280;SDS011;9774;52.034;5.342;2023-05-10T05:53:27;27.35;;;14.13;;
19280;SDS011;9774;52.034;5.342;2023-05-10T05:55:55;28.52;;;15.05;;
19280;SDS011;9774;52.034;5.342;2023-05-10T05:58:24;22.95;;;13.95;;
19280;SDS011;9774;52.034;5.342;2023-05-10T06:00:51;25.83;;;15.65;;
19280;SDS011;9774;52.034;5.342;2023-05-10T06:03:20;20.92;;;14.18;;
19280;SDS011;9774;52.034;5.342;2023-05-10T06:05:48;23.13;;;14.77;;
19280;SDS011;9774;52.034;5.342;2023-05-10T06:08:15;20.38;;;13.80;;
19280;SDS011;9774;52.034;5.342;2023-05-10T06:10:42;24.98;;;14.98;;
19280;SDS011;9774;52.034;5.342;2023-05-10T06:13:10;24.77;;;14.75;;
19280;SDS011;9774;52.034;5.342;2023-05-10T06:15:37;24.63;;;14.98;;
19280;SDS011;9774;52.034;5.342;2023-05-10T06:18:05;26.73;;;14.93;;
19280;SDS011;9774;52.034;5.342;2023-05-10T06:20:34;24.88;;;14.57;;
19280;SDS011;9774;52.034;5.342;2023-05-10T06:23:01;20.67;;;14.15;;
19280;SDS011;9774;52.034;5.342;2023-05-10T06:25:28;24.85;;;15.45;;
19280;SDS011;9774;52.034;5.342;2023-05-10T06:27:56;21.85;;;13.10;;
19280;SDS011;9774;52.034;5.342;2023-05-10T06:30:23;23.55;;;14.18;;
19280;SDS011;9774;52.034;5.342;2023-05-10T06:32:53;22.55;;;14.48;;
19280;SDS011;9774;52.034;5.342;2023-05-10T06:35:21;23.23;;;13.85;;
19280;SDS011;9774;52.034;5.342;2023-05-10T06:37:50;21.60;;;13.50;;
19280;SDS011;9774;52.034;5.342;2023-05-10T06:40:17;20.05;;;12.68;;
19280;SDS011;9774;52.034;5.342;2023-05-10T06:42:45;22.15;;;13.45;;
19280;SDS011;9774;52.034;5.342;2023-05-10T06:45:12;21.63;;;13.50;;
19280;SDS011;9774;52.034;5.342;2023-05-10T06:47:40;23.80;;;14.27;;
19280;SDS011;9774;52.034;5.342;2023-05-10T06:50:08;18.83;;;12.45;;
19280;SDS011;9774;52.034;5.342;2023-05-10T06:52:36;19.65;;;12.38;;
19280;SDS011;9774;52.034;5.342;2023-05-10T06:55:05;18.60;;;12.13;;
19280;SDS011;9774;52.034;5.342;2023-05-10T06:57:33;19.00;;;11.48;;
19280;SDS011;9774;52.034;5.342;2023-05-10T07:00:01;19.67;;;11.55;;
19280;SDS011;9774;52.034;5.342;2023-05-10T07:02:30;16.98;;;9.80;;
19280;SDS011;9774;52.034;5.342;2023-05-10T07:04:57;16.38;;;10.35;;
19280;SDS011;9774;52.034;5.342;2023-05-10T07:07:24;13.20;;;9.32;;
19280;SDS011;9774;52.034;5.342;2023-05-10T07:09:52;13.35;;;9.35;;
19280;SDS011;9774;52.034;5.342;2023-05-10T07:12:21;15.90;;;9.30;;
19280;SDS011;9774;52.034;5.342;2023-05-10T07:14:48;13.13;;;8.50;;
19280;SDS011;9774;52.034;5.342;2023-05-10T07:17:15;12.43;;;8.20;;
19280;SDS011;9774;52.034;5.342;2023-05-10T07:19:43;9.82;;;6.63;;
19280;SDS011;9774;52.034;5.342;2023-05-10T07:22:10;9.52;;;6.90;;
19280;SDS011;9774;52.034;5.342;2023-05-10T07:24:38;6.78;;;4.88;;
19280;SDS011;9774;52.034;5.342;2023-05-10T07:27:05;6.78;;;5.10;;
19280;SDS011;9774;52.034;5.342;2023-05-10T07:29:34;7.05;;;4.78;;
19280;SDS011;9774;52.034;5.342;2023-05-10T07:32:02;5.93;;;4.93;;
19280;SDS011;9774;52.034;5.342;2023-05-10T07:34:29;6.18;;;4.93;;
19280;SDS011;9774;52.034;5.342;2023-05-10T07:36:57;6.38;;;4.35;;
19280;SDS011;9774;52.034;5.342;2023-05-10T07:39:25;6.72;;;4.05;;
19280;SDS011;9774;52.034;5.342;2023-05-10T07:41:52;5.57;;;3.97;;
19280;SDS011;9774;52.034;5.342;2023-05-10T07:44:20;6.22;;;3.75;;
19280;SDS011;9774;52.034;5.342;2023-05-10T07:46:49;5.93;;;4.18;;
19280;SDS011;9774;52.034;5.342;2023-05-10T07:49:16;5.88;;;4.22;;
19280;SDS011;9774;52.034;5.342;2023-05-10T07:51:43;6.90;;;4.15;;
19280;SDS011;9774;52.034;5.342;2023-05-10T07:54:11;4.50;;;3.42;;
19280;SDS011;9774;52.034;5.342;2023-05-10T07:56:38;5.20;;;3.42;;
19280;SDS011;9774;52.034;5.342;2023-05-10T07:59:14;5.03;;;3.40;;
19280;SDS011;9774;52.034;5.342;2023-05-10T08:01:42;4.78;;;3.60;;
19280;SDS011;9774;52.034;5.342;2023-05-10T08:04:13;4.63;;;3.33;;
19280;SDS011;9774;52.034;5.342;2023-05-10T08:06:41;7.55;;;4.18;;
19280;SDS011;9774;52.034;5.342;2023-05-10T08:09:08;5.32;;;3.60;;
19280;SDS011;9774;52.034;5.342;2023-05-10T08:11:35;4.90;;;3.63;;
19280;SDS011;9774;52.034;5.342;2023-05-10T08:14:03;4.95;;;3.65;;
19280;SDS011;9774;52.034;5.342;2023-05-10T08:16:30;5.00;;;3.33;;
19280;SDS011;9774;52.034;5.342;2023-05-10T08:18:59;7.45;;;4.20;;
19280;SDS011;9774;52.034;5.342;2023-05-10T08:21:28;4.95;;;3.90;;
19280;SDS011;9774;52.034;5.342;2023-05-10T08:23:56;8.10;;;4.20;;
19280;SDS011;9774;52.034;5.342;2023-05-10T08:26:23;5.20;;;3.38;;
19280;SDS011;9774;52.034;5.342;2023-05-10T08:28:51;5.55;;;3.28;;
19280;SDS011;9774;52.034;5.342;2023-05-10T08:31:18;4.93;;;3.70;;
19280;SDS011;9774;52.034;5.342;2023-05-10T08:33:46;7.40;;;4.20;;
19280;SDS011;9774;52.034;5.342;2023-05-10T08:36:13;7.55;;;4.63;;
19280;SDS011;9774;52.034;5.342;2023-05-10T08:38:46;9.38;;;4.60;;
19280;SDS011;9774;52.034;5.342;2023-05-10T08:41:13;5.85;;;4.20;;
19280;SDS011;9774;52.034;5.342;2023-05-10T08:43:41;6.25;;;4.03;;
19280;SDS011;9774;52.034;5.342;2023-05-10T08:46:14;6.95;;;4.57;;
19280;SDS011;9774;52.034;5.342;2023-05-10T08:48:43;6.45;;;4.40;;
19280;SDS011;9774;52.034;5.342;2023-05-10T08:51:12;5.97;;;4.00;;
19280;SDS011;9774;52.034;5.342;2023-05-10T08:53:41;7.68;;;4.53;;
19280;SDS011;9774;52.034;5.342;2023-05-10T08:56:13;6.97;;;4.35;;
19280;SDS011;9774;52.034;5.342;2023-05-10T08:58:43;6.35;;;4.03;;
19280;SDS011;9774;52.034;5.342;2023-05-10T09:01:28;7.85;;;5.10;;
19280;SDS011;9774;52.034;5.342;2023-05-10T09:03:59;6.32;;;4.53;;
19280;SDS011;9774;52.034;5.342;2023-05-10T09:06:27;7.35;;;4.15;;
19280;SDS011;9774;52.034;5.342;2023-05-10T09:08:58;6.72;;;4.25;;
19280;SDS011;9774;52.034;5.342;2023-05-10T09:11:27;6.80;;;3.83;;
19280;SDS011;9774;52.034;5.342;2023-05-10T09:13:55;5.05;;;4.05;;
19280;SDS011;9774;52.034;5.342;2023-05-10T09:16:23;5.97;;;4.22;;
19280;SDS011;9774;52.034;5.342;2023-05-10T09:18:50;7.85;;;4.82;;
19280;SDS011;9774;52.034;5.342;2023-05-10T09:21:19;6.78;;;4.50;;
19280;SDS011;9774;52.034;5.342;2023-05-10T09:23:47;6.95;;;4.03;;
19280;SDS011;9774;52.034;5.342;2023-05-10T09:26:15;7.50;;;4.60;;
19280;SDS011;9774;52.034;5.342;2023-05-10T09:28:53;5.40;;;3.90;;
19280;SDS011;9774;52.034;5.342;2023-05-10T09:31:21;4.90;;;4.15;;
19280;SDS011;9774;52.034;5.342;2023-05-10T09:34:11;7.72;;;4.88;;
19280;SDS011;9774;52.034;5.342;2023-05-10T09:36:50;6.00;;;3.97;;
19280;SDS011;9774;52.034;5.342;2023-05-10T09:39:19;7.82;;;4.22;;
19280;SDS011;9774;52.034;5.342;2023-05-10T09:41:47;5.13;;;4.40;;
19280;SDS011;9774;52.034;5.342;2023-05-10T09:44:17;5.47;;;4.00;;
19280;SDS011;9774;52.034;5.342;2023-05-10T09:46:49;6.82;;;4.95;;
19280;SDS011;9774;52.034;5.342;2023-05-10T09:49:17;6.22;;;3.92;;
19280;SDS011;9774;52.034;5.342;2023-05-10T09:51:45;5.78;;;4.07;;
19280;SDS011;9774;52.034;5.342;2023-05-10T09:54:14;7.93;;;4.63;;
19280;SDS011;9774;52.034;5.342;2023-05-10T09:56:42;5.43;;;3.85;;
19280;SDS011;9774;52.034;5.342;2023-05-10T09:59:11;7.03;;;4.63;;
19280;SDS011;9774;52.034;5.342;2023-05-10T10:01:40;7.13;;;4.32;;
19280;SDS011;9774;52.034;5.342;2023-05-10T10:04:08;5.38;;;4.22;;
19280;SDS011;9774;52.034;5.342;2023-05-10T10:06:36;5.95;;;4.50;;
19280;SDS011;9774;52.034;5.342;2023-05-10T10:09:04;5.55;;;4.03;;
19280;SDS011;9774;52.034;5.342;2023-05-10T10:11:32;6.75;;;4.13;;
19280;SDS011;9774;52.034;5.342;2023-05-10T10:14:00;5.07;;;3.75;;
19280;SDS011;9774;52.034;5.342;2023-05-10T10:16:28;5.57;;;4.47;;
19280;SDS011;9774;52.034;5.342;2023-05-10T10:18:57;5.45;;;4.00;;
19280;SDS011;9774;52.034;5.342;2023-05-10T10:21:25;6.00;;;4.13;;
19280;SDS011;9774;52.034;5.342;2023-05-10T10:23:52;6.20;;;4.15;;
19280;SDS011;9774;52.034;5.342;2023-05-10T10:26:20;6.35;;;4.30;;
19280;SDS011;9774;52.034;5.342;2023-05-10T10:28:49;5.45;;;3.60;;
19280;SDS011;9774;52.034;5.342;2023-05-10T10:31:27;5.03;;;4.20;;
19280;SDS011;9774;52.034;5.342;2023-05-10T10:34:05;4.32;;;3.67;;
19280;SDS011;9774;52.034;5.342;2023-05-10T10:36:39;4.35;;;3.75;;
19280;SDS011;9774;52.034;5.342;2023-05-10T10:39:08;4.90;;;3.63;;
19280;SDS011;9774;52.034;5.342;2023-05-10T10:41:37;5.13;;;3.63;;
19280;SDS011;9774;52.034;5.342;2023-05-10T10:44:24;5.28;;;3.53;;
19280;SDS011;9774;52.034;5.342;2023-05-10T10:47:07;4.25;;;3.60;;
19280;SDS011;9774;52.034;5.342;2023-05-10T10:50:03;6.03;;;3.42;;
19280;SDS011;9774;52.034;5.342;2023-05-10T10:52:32;5.47;;;3.42;;
19280;SDS011;9774;52.034;5.342;2023-05-10T10:55:02;5.13;;;4.13;;
19280;SDS011;9774;52.034;5.342;2023-05-10T10:57:31;5.10;;;3.33;;
19280;SDS011;9774;52.034;5.342;2023-05-10T11:00:19;5.25;;;3.65;;
19280;SDS011;9774;52.034;5.342;2023-05-10T11:02:51;3.72;;;3.00;;
19280;SDS011;9774;52.034;5.342;2023-05-10T11:08:09;4.47;;;2.75;;
19280;SDS011;9774;52.034;5.342;2023-05-10T11:10:38;3.67;;;2.72;;
19280;SDS011;9774;52.034;5.342;2023-05-10T11:13:07;3.03;;;2.55;;
19280;SDS011;9774;52.034;5.342;2023-05-10T11:15:35;3.55;;;2.65;;
19280;SDS011;9774;52.034;5.342;2023-05-10T11:20:51;4.60;;;2.63;;
19280;SDS011;9774;52.034;5.342;2023-05-10T11:23:21;3.50;;;2.70;;
19280;SDS011;9774;52.034;5.342;2023-05-10T11:25:48;3.40;;;2.35;;
19280;SDS011;9774;52.034;5.342;2023-05-10T11:28:16;2.55;;;2.30;;
19280;SDS011;9774;52.034;5.342;2023-05-10T11:30:44;4.60;;;2.58;;
19280;SDS011;9774;52.034;5.342;2023-05-10T11:33:15;3.05;;;2.38;;
19280;SDS011;9774;52.034;5.342;2023-05-10T11:35:44;2.75;;;2.10;;
19280;SDS011;9774;52.034;5.342;2023-05-10T11:38:13;2.65;;;2.33;;
19280;SDS011;9774;52.034;5.342;2023-05-10T11:40:41;3.33;;;2.25;;
19280;SDS011;9774;52.034;5.342;2023-05-10T11:43:08;3.35;;;2.08;;
19280;SDS011;9774;52.034;5.342;2023-05-10T11:45:37;2.92;;;2.10;;
19280;SDS011;9774;52.034;5.342;2023-05-10T11:48:06;2.17;;;1.95;;
19280;SDS011;9774;52.034;5.342;2023-05-10T11:50:33;4.03;;;2.58;;
19280;SDS011;9774;52.034;5.342;2023-05-10T11:53:01;3.15;;;2.10;;
19280;SDS011;9774;52.034;5.342;2023-05-10T11:55:30;3.65;;;2.20;;
19280;SDS011;9774;52.034;5.342;2023-05-10T11:58:00;3.97;;;2.58;;
19280;SDS011;9774;52.034;5.342;2023-05-10T12:00:28;3.95;;;2.53;;
19280;SDS011;9774;52.034;5.342;2023-05-10T12:02:57;3.83;;;2.33;;
19280;SDS011;9774;52.034;5.342;2023-05-10T12:05:26;3.53;;;2.35;;
19280;SDS011;9774;52.034;5.342;2023-05-10T12:07:54;2.90;;;1.90;;
19280;SDS011;9774;52.034;5.342;2023-05-10T12:10:39;2.67;;;2.20;;
19280;SDS011;9774;52.034;5.342;2023-05-10T12:13:10;3.10;;;2.28;;
19280;SDS011;9774;52.034;5.342;2023-05-10T12:15:39;2.95;;;1.95;;
19280;SDS011;9774;52.034;5.342;2023-05-10T12:18:07;6.00;;;2.55;;
19280;SDS011;9774;52.034;5.342;2023-05-10T12:20:36;3.53;;;2.42;;
19280;SDS011;9774;52.034;5.342;2023-05-10T12:23:04;3.13;;;2.15;;
19280;SDS011;9774;52.034;5.342;2023-05-10T12:25:34;2.83;;;2.03;;
19280;SDS011;9774;52.034;5.342;2023-05-10T12:28:04;3.85;;;2.22;;
19280;SDS011;9774;52.034;5.342;2023-05-10T12:30:33;3.88;;;2.33;;
19280;SDS011;9774;52.034;5.342;2023-05-10T12:33:01;2.25;;;1.67;;
19280;SDS011;9774;52.034;5.342;2023-05-10T12:35:33;4.28;;;3.05;;
19280;SDS011;9774;52.034;5.342;2023-05-10T12:38:23;5.35;;;3.30;;
19280;SDS011;9774;52.034;5.342;2023-05-10T12:40:54;4.20;;;3.42;;
19280;SDS011;9774;52.034;5.342;2023-05-10T12:43:23;4.35;;;3.72;;
19280;SDS011;9774;52.034;5.342;2023-05-10T12:45:50;4.05;;;3.15;;
19280;SDS011;9774;52.034;5.342;2023-05-10T12:48:17;4.30;;;3.10;;
19280;SDS011;9774;52.034;5.342;2023-05-10T12:50:45;4.55;;;3.33;;
19280;SDS011;9774;52.034;5.342;2023-05-10T12:53:13;3.42;;;2.85;;
19280;SDS011;9774;52.034;5.342;2023-05-10T12:55:41;3.10;;;2.80;;
19280;SDS011;9774;52.034;5.342;2023-05-10T12:58:09;3.55;;;2.80;;
19280;SDS011;9774;52.034;5.342;2023-05-10T13:00:37;6.22;;;3.15;;
19280;SDS011;9774;52.034;5.342;2023-05-10T13:03:05;3.50;;;3.00;;
19280;SDS011;9774;52.034;5.342;2023-05-10T13:05:32;3.78;;;3.38;;
19280;SDS011;9774;52.034;5.342;2023-05-10T13:07:59;3.53;;;3.08;;
19280;SDS011;9774;52.034;5.342;2023-05-10T13:10:27;4.60;;;3.17;;
19280;SDS011;9774;52.034;5.342;2023-05-10T13:12:55;3.50;;;2.85;;
19280;SDS011;9774;52.034;5.342;2023-05-10T13:15:23;4.20;;;3.60;;
19280;SDS011;9774;52.034;5.342;2023-05-10T13:17:52;3.53;;;3.17;;
19280;SDS011;9774;52.034;5.342;2023-05-10T13:20:20;4.57;;;3.03;;
19280;SDS011;9774;52.034;5.342;2023-05-10T13:22:47;4.78;;;3.17;;
19280;SDS011;9774;52.034;5.342;2023-05-10T13:25:14;4.15;;;3.00;;
19280;SDS011;9774;52.034;5.342;2023-05-10T13:27:42;5.25;;;2.85;;
19280;SDS011;9774;52.034;5.342;2023-05-10T13:30:09;3.25;;;2.47;;
19280;SDS011;9774;52.034;5.342;2023-05-10T13:32:37;5.10;;;3.10;;
19280;SDS011;9774;52.034;5.342;2023-05-10T13:35:06;5.60;;;3.30;;
19280;SDS011;9774;52.034;5.342;2023-05-10T13:37:34;4.07;;;2.80;;
19280;SDS011;9774;52.034;5.342;2023-05-10T13:40:02;3.95;;;2.50;;
19280;SDS011;9774;52.034;5.342;2023-05-10T13:42:31;4.35;;;2.78;;
19280;SDS011;9774;52.034;5.342;2023-05-10T13:44:59;4.03;;;2.33;;
19280;SDS011;9774;52.034;5.342;2023-05-10T13:47:26;6.43;;;3.35;;
19280;SDS011;9774;52.034;5.342;2023-05-10T13:49:54;3.78;;;2.97;;
19280;SDS011;9774;52.034;5.342;2023-05-10T13:52:23;5.38;;;3.05;;
19280;SDS011;9774;52.034;5.342;2023-05-10T13:54:51;7.93;;;3.88;;
19280;SDS011;9774;52.034;5.342;2023-05-10T13:57:19;6.35;;;3.58;;
19280;SDS011;9774;52.034;5.342;2023-05-10T13:59:48;4.10;;;2.95;;
19280;SDS011;9774;52.034;5.342;2023-05-10T14:02:15;5.20;;;3.25;;
19280;SDS011;9774;52.034;5.342;2023-05-10T14:04:42;4.88;;;3.58;;
19280;SDS011;9774;52.034;5.342;2023-05-10T14:07:10;5.25;;;3.70;;
19280;SDS011;9774;52.034;5.342;2023-05-10T14:09:38;5.45;;;3.50;;
19280;SDS011;9774;52.034;5.342;2023-05-10T14:12:05;4.57;;;3.58;;
19280;SDS011;9774;52.034;5.342;2023-05-10T14:14:33;4.82;;;3.22;;
19280;SDS011;9774;52.034;5.342;2023-05-10T14:17:00;9.93;;;3.80;;
19280;SDS011;9774;52.034;5.342;2023-05-10T14:19:27;6.38;;;3.92;;
19280;SDS011;9774;52.034;5.342;2023-05-10T14:21:57;4.65;;;3.65;;
19280;SDS011;9774;52.034;5.342;2023-05-10T14:24:24;5.78;;;3.60;;
19280;SDS011;9774;52.034;5.342;2023-05-10T14:26:53;5.32;;;3.85;;
19280;SDS011;9774;52.034;5.342;2023-05-10T14:29:20;5.45;;;3.78;;
19280;SDS011;9774;52.034;5.342;2023-05-10T14:31:48;6.78;;;4.30;;
19280;SDS011;9774;52.034;5.342;2023-05-10T14:34:15;6.40;;;3.53;;
19280;SDS011;9774;52.034;5.342;2023-05-10T14:36:42;7.75;;;4.50;;
19280;SDS011;9774;52.034;5.342;2023-05-10T14:39:10;6.80;;;4.07;;
19280;SDS011;9774;52.034;5.342;2023-05-10T14:41:38;4.68;;;3.60;;
19280;SDS011;9774;52.034;5.342;2023-05-10T14:44:09;5.28;;;3.90;;
19280;SDS011;9774;52.034;5.342;2023-05-10T14:46:36;5.97;;;3.38;;
19280;SDS011;9774;52.034;5.342;2023-05-10T14:49:04;5.68;;;3.95;;
19280;SDS011;9774;52.034;5.342;2023-05-10T14:51:31;5.65;;;3.97;;
19280;SDS011;9774;52.034;5.342;2023-05-10T14:53:59;7.65;;;4.13;;
19280;SDS011;9774;52.034;5.342;2023-05-10T14:56:27;4.93;;;3.67;;
19280;SDS011;9774;52.034;5.342;2023-05-10T14:59:26;6.22;;;3.85;;
19280;SDS011;9774;52.034;5.342;2023-05-10T15:01:57;5.60;;;3.70;;
19280;SDS011;9774;52.034;5.342;2023-05-10T15:04:24;5.25;;;3.90;;
19280;SDS011;9774;52.034;5.342;2023-05-10T15:06:52;7.32;;;4.57;;